sensor_id;sensor_type;location;lat;lon;timestamp;P1;durP1;ratioP1;P2;durP2;ratioP2
68765;SDS011;55756;45.582;11.484;2024-01-15T00:00:38;85.10;;;56.70;;
68765;SDS011;55756;45.582;11.484;2024-01-15T00:03:04;78.70;;;54.25;;
68765;SDS011;55756;45.582;11.484;2024-01-15T00:05:30;78.20;;;54.10;;
68765;SDS011;55756;45.582;11.484;2024-01-15T00:07:56;76.85;;;52.53;;
68765;SDS011;55756;45.582;11.484;2024-01-15T00:10:22;82.15;;;54.85;;
68765;SDS011;55756;45.582;11.484;2024-01-15T00:12:48;80.18;;;53.75;;
68765;SDS011;55756;45.582;11.484;2024-01-15T00:15:14;75.82;;;52.55;;
68765;SDS011;55756;45.582;11.484;2024-01-15T00:17:40;76.70;;;53.22;;
68765;SDS011;55756;45.582;11.484;2024-01-15T00:20:06;76.43;;;52.38;;
68765;SDS011;55756;45.582;11.484;2024-01-15T00:22:32;79.95;;;52.58;;
68765;SDS011;55756;45.582;11.484;2024-01-15T00:24:58;76.47;;;50.35;;
68765;SDS011;55756;45.582;11.484;2024-01-15T00:27:24;73.18;;;50.17;;
68765;SDS011;55756;45.582;11.484;2024-01-15T00:29:49;71.90;;;50.15;;
68765;SDS011;55756;45.582;11.484;2024-01-15T00:32:17;73.90;;;51.40;;
68765;SDS011;55756;45.582;11.484;2024-01-15T00:34:42;71.22;;;49.85;;
68765;SDS011;55756;45.582;11.484;2024-01-15T00:37:08;73.05;;;51.08;;
68765;SDS011;55756;45.582;11.484;2024-01-15T00:39:34;72.38;;;51.95;;
68765;SDS011;55756;45.582;11.484;2024-01-15T00:42:00;68.55;;;49.70;;
68765;SDS011;55756;45.582;11.484;2024-01-15T00:44:26;74.80;;;51.33;;
68765;SDS011;55756;45.582;11.484;2024-01-15T00:46:52;70.47;;;50.67;;
68765;SDS011;55756;45.582;11.484;2024-01-15T00:49:17;73.43;;;51.70;;
68765;SDS011;55756;45.582;11.484;2024-01-15T00:51:43;73.15;;;51.10;;
68765;SDS011;55756;45.582;11.484;2024-01-15T00:54:09;74.15;;;51.03;;
68765;SDS011;55756;45.582;11.484;2024-01-15T00:56:34;75.07;;;51.85;;
68765;SDS011;55756;45.582;11.484;2024-01-15T00:59:00;88.97;;;57.63;;
68765;SDS011;55756;45.582;11.484;2024-01-15T01:01:26;78.70;;;52.00;;
68765;SDS011;55756;45.582;11.484;2024-01-15T01:03:52;82.13;;;53.72;;
68765;SDS011;55756;45.582;11.484;2024-01-15T01:06:18;74.53;;;50.20;;
68765;SDS011;55756;45.582;11.484;2024-01-15T01:08:43;67.50;;;47.58;;
68765;SDS011;55756;45.582;11.484;2024-01-15T01:11:12;67.97;;;48.58;;
68765;SDS011;55756;45.582;11.484;2024-01-15T01:13:38;68.63;;;49.40;;
68765;SDS011;55756;45.582;11.484;2024-01-15T01:16:04;66.63;;;47.97;;
68765;SDS011;55756;45.582;11.484;2024-01-15T01:18:30;66.65;;;45.92;;
68765;SDS011;55756;45.582;11.484;2024-01-15T01:20:56;65.55;;;45.25;;
68765;SDS011;55756;45.582;11.484;2024-01-15T01:23:21;67.10;;;47.08;;
68765;SDS011;55756;45.582;11.484;2024-01-15T01:25:47;66.25;;;46.08;;
68765;SDS011;55756;45.582;11.484;2024-01-15T01:28:13;64.50;;;46.13;;
68765;SDS011;55756;45.582;11.484;2024-01-15T01:30:38;64.88;;;46.05;;
68765;SDS011;55756;45.582;11.484;2024-01-15T01:33:04;64.40;;;45.35;;
68765;SDS011;55756;45.582;11.484;2024-01-15T01:35:30;67.00;;;45.05;;
68765;SDS011;55756;45.582;11.484;2024-01-15T01:37:56;64.57;;;45.65;;
68765;SDS011;55756;45.582;11.484;2024-01-15T01:40:22;66.47;;;46.05;;
68765;SDS011;55756;45.582;11.484;2024-01-15T01:42:48;69.07;;;46.00;;
68765;SDS011;55756;45.582;11.484;2024-01-15T01:45:14;65.20;;;45.72;;
68765;SDS011;55756;45.582;11.484;2024-01-15T01:47:40;64.78;;;45.08;;
68765;SDS011;55756;45.582;11.484;2024-01-15T01:50:06;62.33;;;44.45;;
68765;SDS011;55756;45.582;11.484;2024-01-15T01:52:32;63.30;;;43.63;;
68765;SDS011;55756;45.582;11.484;2024-01-15T01:55:00;60.78;;;44.25;;
68765;SDS011;55756;45.582;11.484;2024-01-15T01:57:27;63.73;;;44.60;;
68765;SDS011;55756;45.582;11.484;2024-01-15T01:59:53;58.65;;;43.28;;
68765;SDS011;55756;45.582;11.484;2024-01-15T02:02:19;60.70;;;43.63;;
68765;SDS011;55756;45.582;11.484;2024-01-15T02:04:46;61.83;;;44.58;;
68765;SDS011;55756;45.582;11.484;2024-01-15T02:07:13;60.55;;;43.38;;
68765;SDS011;55756;45.582;11.484;2024-01-15T02:09:39;57.50;;;41.47;;
68765;SDS011;55756;45.582;11.484;2024-01-15T02:12:04;59.70;;;42.65;;
68765;SDS011;55756;45.582;11.484;2024-01-15T02:14:31;57.58;;;41.63;;
68765;SDS011;55756;45.582;11.484;2024-01-15T02:16:57;58.90;;;42.08;;
68765;SDS011;55756;45.582;11.484;2024-01-15T02:19:23;57.60;;;41.55;;
68765;SDS011;55756;45.582;11.484;2024-01-15T02:21:48;60.65;;;42.20;;
68765;SDS011;55756;45.582;11.484;2024-01-15T02:24:14;60.42;;;42.05;;
68765;SDS011;55756;45.582;11.484;2024-01-15T02:26:40;61.17;;;42.85;;
68765;SDS011;55756;45.582;11.484;2024-01-15T02:29:08;58.88;;;41.83;;
68765;SDS011;55756;45.582;11.484;2024-01-15T02:31:38;59.45;;;42.38;;
68765;SDS011;55756;45.582;11.484;2024-01-15T02:34:04;59.10;;;42.80;;
68765;SDS011;55756;45.582;11.484;2024-01-15T02:36:30;57.75;;;41.83;;
68765;SDS011;55756;45.582;11.484;2024-01-15T02:38:55;55.15;;;41.20;;
68765;SDS011;55756;45.582;11.484;2024-01-15T02:41:21;56.30;;;41.15;;
68765;SDS011;55756;45.582;11.484;2024-01-15T02:43:47;56.38;;;41.08;;
68765;SDS011;55756;45.582;11.484;2024-01-15T02:46:13;57.03;;;39.95;;
68765;SDS011;55756;45.582;11.484;2024-01-15T02:48:39;55.85;;;41.30;;
68765;SDS011;55756;45.582;11.484;2024-01-15T02:51:04;60.15;;;40.78;;
68765;SDS011;55756;45.582;11.484;2024-01-15T02:53:30;56.33;;;40.47;;
68765;SDS011;55756;45.582;11.484;2024-01-15T02:55:56;57.65;;;41.92;;
68765;SDS011;55756;45.582;11.484;2024-01-15T02:58:21;56.38;;;40.58;;
68765;SDS011;55756;45.582;11.484;2024-01-15T03:00:47;53.47;;;39.50;;
68765;SDS011;55756;45.582;11.484;2024-01-15T03:03:13;57.20;;;40.55;;
68765;SDS011;55756;45.582;11.484;2024-01-15T03:05:39;54.83;;;39.22;;
68765;SDS011;55756;45.582;11.484;2024-01-15T03:08:04;53.42;;;39.42;;
68765;SDS011;55756;45.582;11.484;2024-01-15T03:10:30;52.83;;;38.78;;
68765;SDS011;55756;45.582;11.484;2024-01-15T03:12:56;58.22;;;40.88;;
68765;SDS011;55756;45.582;11.484;2024-01-15T03:15:22;56.38;;;40.88;;
68765;SDS011;55756;45.582;11.484;2024-01-15T03:17:48;55.85;;;40.35;;
68765;SDS011;55756;45.582;11.484;2024-01-15T03:20:15;54.78;;;40.53;;
68765;SDS011;55756;45.582;11.484;2024-01-15T03:22:41;57.00;;;41.83;;
68765;SDS011;55756;45.582;11.484;2024-01-15T03:25:07;59.65;;;42.13;;
68765;SDS011;55756;45.582;11.484;2024-01-15T03:27:32;58.22;;;41.63;;
68765;SDS011;55756;45.582;11.484;2024-01-15T03:30:00;59.58;;;42.03;;
68765;SDS011;55756;45.582;11.484;2024-01-15T03:32:25;61.13;;;42.20;;
68765;SDS011;55756;45.582;11.484;2024-01-15T03:34:51;52.15;;;40.03;;
68765;SDS011;55756;45.582;11.484;2024-01-15T03:37:17;55.58;;;41.17;;
68765;SDS011;55756;45.582;11.484;2024-01-15T03:39:43;56.05;;;40.58;;
68765;SDS011;55756;45.582;11.484;2024-01-15T03:42:09;53.20;;;38.97;;
68765;SDS011;55756;45.582;11.484;2024-01-15T03:44:34;55.13;;;41.10;;
68765;SDS011;55756;45.582;11.484;2024-01-15T03:47:00;58.33;;;41.15;;
68765;SDS011;55756;45.582;11.484;2024-01-15T03:49:26;59.25;;;41.75;;
68765;SDS011;55756;45.582;11.484;2024-01-15T03:51:52;55.42;;;41.95;;
68765;SDS011;55756;45.582;11.484;2024-01-15T03:54:17;58.72;;;41.75;;
68765;SDS011;55756;45.582;11.484;2024-01-15T03:56:43;56.90;;;41.35;;
68765;SDS011;55756;45.582;11.484;2024-01-15T03:59:09;56.78;;;40.65;;
68765;SDS011;55756;45.582;11.484;2024-01-15T04:01:34;58.90;;;41.60;;
68765;SDS011;55756;45.582;11.484;2024-01-15T04:04:00;58.60;;;42.22;;
68765;SDS011;55756;45.582;11.484;2024-01-15T04:06:26;59.53;;;44.00;;
68765;SDS011;55756;45.582;11.484;2024-01-15T04:08:51;60.40;;;42.47;;
68765;SDS011;55756;45.582;11.484;2024-01-15T04:11:17;57.28;;;41.97;;
68765;SDS011;55756;45.582;11.484;2024-01-15T04:13:43;57.50;;;43.78;;
68765;SDS011;55756;45.582;11.484;2024-01-15T04:16:08;60.38;;;41.63;;
68765;SDS011;55756;45.582;11.484;2024-01-15T04:18:34;56.10;;;42.70;;
68765;SDS011;55756;45.582;11.484;2024-01-15T04:21:00;57.33;;;42.33;;
68765;SDS011;55756;45.582;11.484;2024-01-15T04:23:26;56.03;;;42.05;;
68765;SDS011;55756;45.582;11.484;2024-01-15T04:25:52;56.67;;;42.00;;
68765;SDS011;55756;45.582;11.484;2024-01-15T04:28:17;60.20;;;43.35;;
68765;SDS011;55756;45.582;11.484;2024-01-15T04:30:43;61.65;;;43.50;;
68765;SDS011;55756;45.582;11.484;2024-01-15T04:33:09;61.95;;;43.17;;
68765;SDS011;55756;45.582;11.484;2024-01-15T04:35:34;60.25;;;42.45;;
68765;SDS011;55756;45.582;11.484;2024-01-15T04:38:00;56.65;;;41.67;;
68765;SDS011;55756;45.582;11.484;2024-01-15T04:40:26;52.65;;;40.35;;
68765;SDS011;55756;45.582;11.484;2024-01-15T04:42:53;60.42;;;42.53;;
68765;SDS011;55756;45.582;11.484;2024-01-15T04:45:19;58.13;;;42.08;;
68765;SDS011;55756;45.582;11.484;2024-01-15T04:47:48;57.42;;;41.33;;
68765;SDS011;55756;45.582;11.484;2024-01-15T04:50:14;56.15;;;41.20;;
68765;SDS011;55756;45.582;11.484;2024-01-15T04:52:40;62.40;;;42.03;;
68765;SDS011;55756;45.582;11.484;2024-01-15T04:55:05;57.42;;;42.42;;
68765;SDS011;55756;45.582;11.484;2024-01-15T04:57:31;58.78;;;42.72;;
68765;SDS011;55756;45.582;11.484;2024-01-15T04:59:57;58.50;;;43.78;;
68765;SDS011;55756;45.582;11.484;2024-01-15T05:02:23;59.17;;;43.97;;
68765;SDS011;55756;45.582;11.484;2024-01-15T05:04:49;60.28;;;43.83;;
68765;SDS011;55756;45.582;11.484;2024-01-15T05:07:14;60.72;;;43.00;;
68765;SDS011;55756;45.582;11.484;2024-01-15T05:09:40;61.45;;;43.38;;
68765;SDS011;55756;45.582;11.484;2024-01-15T05:12:06;61.15;;;43.72;;
68765;SDS011;55756;45.582;11.484;2024-01-15T05:14:32;57.75;;;41.67;;
68765;SDS011;55756;45.582;11.484;2024-01-15T05:16:57;58.08;;;42.65;;
68765;SDS011;55756;45.582;11.484;2024-01-15T05:19:23;58.88;;;42.63;;
68765;SDS011;55756;45.582;11.484;2024-01-15T05:21:49;58.15;;;43.00;;
68765;SDS011;55756;45.582;11.484;2024-01-15T05:24:15;59.00;;;41.67;;
68765;SDS011;55756;45.582;11.484;2024-01-15T05:26:40;60.42;;;42.97;;
68765;SDS011;55756;45.582;11.484;2024-01-15T05:29:10;57.35;;;43.30;;
68765;SDS011;55756;45.582;11.484;2024-01-15T05:31:38;58.75;;;41.67;;
68765;SDS011;55756;45.582;11.484;2024-01-15T05:34:04;60.95;;;41.53;;
68765;SDS011;55756;45.582;11.484;2024-01-15T05:36:30;57.05;;;40.90;;
68765;SDS011;55756;45.582;11.484;2024-01-15T05:38:55;61.45;;;40.83;;
68765;SDS011;55756;45.582;11.484;2024-01-15T05:41:21;60.88;;;41.85;;
68765;SDS011;55756;45.582;11.484;2024-01-15T05:43:47;56.92;;;39.53;;
68765;SDS011;55756;45.582;11.484;2024-01-15T05:46:12;53.90;;;37.28;;
68765;SDS011;55756;45.582;11.484;2024-01-15T05:48:39;46.90;;;34.35;;
68765;SDS011;55756;45.582;11.484;2024-01-15T05:51:04;43.58;;;32.88;;
68765;SDS011;55756;45.582;11.484;2024-01-15T05:53:33;48.42;;;34.47;;
68765;SDS011;55756;45.582;11.484;2024-01-15T05:55:59;48.47;;;34.78;;
68765;SDS011;55756;45.582;11.484;2024-01-15T05:58:26;51.55;;;35.63;;
68765;SDS011;55756;45.582;11.484;2024-01-15T06:00:53;50.47;;;36.05;;
68765;SDS011;55756;45.582;11.484;2024-01-15T06:03:19;49.00;;;34.30;;
68765;SDS011;55756;45.582;11.484;2024-01-15T06:05:44;48.47;;;33.25;;
68765;SDS011;55756;45.582;11.484;2024-01-15T06:08:10;45.67;;;32.65;;
68765;SDS011;55756;45.582;11.484;2024-01-15T06:10:36;46.10;;;33.10;;
68765;SDS011;55756;45.582;11.484;2024-01-15T06:13:01;44.58;;;31.70;;
68765;SDS011;55756;45.582;11.484;2024-01-15T06:15:30;43.90;;;31.98;;
68765;SDS011;55756;45.582;11.484;2024-01-15T06:18:00;44.88;;;31.88;;
68765;SDS011;55756;45.582;11.484;2024-01-15T06:20:26;44.88;;;31.52;;
68765;SDS011;55756;45.582;11.484;2024-01-15T06:22:52;43.75;;;30.65;;
68765;SDS011;55756;45.582;11.484;2024-01-15T06:25:17;44.80;;;31.40;;
68765;SDS011;55756;45.582;11.484;2024-01-15T06:27:43;46.28;;;33.15;;
68765;SDS011;55756;45.582;11.484;2024-01-15T06:30:09;46.17;;;32.45;;
68765;SDS011;55756;45.582;11.484;2024-01-15T06:32:35;43.58;;;31.00;;
68765;SDS011;55756;45.582;11.484;2024-01-15T06:35:01;42.30;;;31.20;;
68765;SDS011;55756;45.582;11.484;2024-01-15T06:37:27;42.35;;;30.35;;
68765;SDS011;55756;45.582;11.484;2024-01-15T06:39:52;45.40;;;31.08;;
68765;SDS011;55756;45.582;11.484;2024-01-15T06:42:18;45.20;;;31.70;;
68765;SDS011;55756;45.582;11.484;2024-01-15T06:44:44;46.15;;;32.50;;
68765;SDS011;55756;45.582;11.484;2024-01-15T06:47:09;48.80;;;33.03;;
68765;SDS011;55756;45.582;11.484;2024-01-15T06:49:35;47.00;;;32.55;;
68765;SDS011;55756;45.582;11.484;2024-01-15T06:52:01;48.72;;;33.60;;
68765;SDS011;55756;45.582;11.484;2024-01-15T06:54:27;47.47;;;33.78;;
68765;SDS011;55756;45.582;11.484;2024-01-15T06:56:53;47.20;;;33.30;;
68765;SDS011;55756;45.582;11.484;2024-01-15T06:59:18;48.30;;;33.55;;
68765;SDS011;55756;45.582;11.484;2024-01-15T07:01:46;48.28;;;33.05;;
68765;SDS011;55756;45.582;11.484;2024-01-15T07:04:12;47.95;;;32.58;;
68765;SDS011;55756;45.582;11.484;2024-01-15T07:06:47;46.90;;;32.40;;
68765;SDS011;55756;45.582;11.484;2024-01-15T07:09:13;48.78;;;32.15;;
68765;SDS011;55756;45.582;11.484;2024-01-15T07:11:43;47.53;;;33.53;;
68765;SDS011;55756;45.582;11.484;2024-01-15T07:14:10;46.78;;;33.28;;
68765;SDS011;55756;45.582;11.484;2024-01-15T07:16:36;53.08;;;34.15;;
68765;SDS011;55756;45.582;11.484;2024-01-15T07:19:02;48.45;;;32.80;;
68765;SDS011;55756;45.582;11.484;2024-01-15T07:21:32;54.25;;;33.47;;
68765;SDS011;55756;45.582;11.484;2024-01-15T07:23:58;51.65;;;33.85;;
68765;SDS011;55756;45.582;11.484;2024-01-15T07:26:24;49.10;;;34.25;;
68765;SDS011;55756;45.582;11.484;2024-01-15T07:28:50;52.25;;;34.53;;
68765;SDS011;55756;45.582;11.484;2024-01-15T07:31:17;48.67;;;34.80;;
68765;SDS011;55756;45.582;11.484;2024-01-15T07:33:42;50.67;;;34.20;;
68765;SDS011;55756;45.582;11.484;2024-01-15T07:36:08;51.17;;;35.42;;
68765;SDS011;55756;45.582;11.484;2024-01-15T07:38:34;50.92;;;35.35;;
68765;SDS011;55756;45.582;11.484;2024-01-15T07:40:59;49.97;;;33.75;;
68765;SDS011;55756;45.582;11.484;2024-01-15T07:43:25;52.67;;;33.13;;
68765;SDS011;55756;45.582;11.484;2024-01-15T07:45:53;49.78;;;33.58;;
68765;SDS011;55756;45.582;11.484;2024-01-15T07:48:18;47.92;;;32.97;;
68765;SDS011;55756;45.582;11.484;2024-01-15T07:50:50;48.58;;;33.53;;
68765;SDS011;55756;45.582;11.484;2024-01-15T07:53:16;49.70;;;33.17;;
68765;SDS011;55756;45.582;11.484;2024-01-15T07:55:41;50.15;;;33.67;;
68765;SDS011;55756;45.582;11.484;2024-01-15T07:58:07;47.05;;;33.70;;
68765;SDS011;55756;45.582;11.484;2024-01-15T08:00:33;51.65;;;34.60;;
68765;SDS011;55756;45.582;11.484;2024-01-15T08:02:58;48.05;;;33.47;;
68765;SDS011;55756;45.582;11.484;2024-01-15T08:05:24;49.15;;;33.95;;
68765;SDS011;55756;45.582;11.484;2024-01-15T08:07:50;54.78;;;34.55;;
68765;SDS011;55756;45.582;11.484;2024-01-15T08:10:16;52.15;;;34.78;;
68765;SDS011;55756;45.582;11.484;2024-01-15T08:12:41;56.67;;;35.47;;
68765;SDS011;55756;45.582;11.484;2024-01-15T08:15:07;50.47;;;34.78;;
68765;SDS011;55756;45.582;11.484;2024-01-15T08:17:33;51.92;;;35.08;;
68765;SDS011;55756;45.582;11.484;2024-01-15T08:19:59;65.65;;;38.40;;
68765;SDS011;55756;45.582;11.484;2024-01-15T08:22:25;53.40;;;37.33;;
68765;SDS011;55756;45.582;11.484;2024-01-15T08:24:51;54.88;;;37.28;;
68765;SDS011;55756;45.582;11.484;2024-01-15T08:27:17;55.60;;;39.33;;
68765;SDS011;55756;45.582;11.484;2024-01-15T08:29:43;58.10;;;40.97;;
68765;SDS011;55756;45.582;11.484;2024-01-15T08:32:09;65.00;;;41.97;;
68765;SDS011;55756;45.582;11.484;2024-01-15T08:34:39;62.42;;;42.47;;
68765;SDS011;55756;45.582;11.484;2024-01-15T08:37:04;59.92;;;41.53;;
68765;SDS011;55756;45.582;11.484;2024-01-15T08:39:30;64.18;;;43.10;;
68765;SDS011;55756;45.582;11.484;2024-01-15T08:41:56;63.33;;;44.55;;
68765;SDS011;55756;45.582;11.484;2024-01-15T08:44:21;61.00;;;43.22;;
68765;SDS011;55756;45.582;11.484;2024-01-15T08:46:47;65.63;;;45.13;;
68765;SDS011;55756;45.582;11.484;2024-01-15T08:49:13;63.42;;;43.67;;
68765;SDS011;55756;45.582;11.484;2024-01-15T08:51:38;71.05;;;46.03;;
68765;SDS011;55756;45.582;11.484;2024-01-15T08:54:04;62.83;;;43.20;;
68765;SDS011;55756;45.582;11.484;2024-01-15T08:56:30;61.70;;;42.90;;
68765;SDS011;55756;45.582;11.484;2024-01-15T08:58:56;75.93;;;47.58;;
68765;SDS011;55756;45.582;11.484;2024-01-15T09:01:21;71.65;;;46.72;;
68765;SDS011;55756;45.582;11.484;2024-01-15T09:03:48;65.85;;;44.28;;
68765;SDS011;55756;45.582;11.484;2024-01-15T09:06:14;63.63;;;42.75;;
68765;SDS011;55756;45.582;11.484;2024-01-15T09:08:39;63.63;;;42.42;;
68765;SDS011;55756;45.582;11.484;2024-01-15T09:11:05;65.15;;;43.15;;
68765;SDS011;55756;45.582;11.484;2024-01-15T09:13:31;67.50;;;43.72;;
68765;SDS011;55756;45.582;11.484;2024-01-15T09:15:57;68.50;;;44.45;;
68765;SDS011;55756;45.582;11.484;2024-01-15T09:18:24;70.18;;;45.17;;
68765;SDS011;55756;45.582;11.484;2024-01-15T09:20:50;65.05;;;43.97;;
68765;SDS011;55756;45.582;11.484;2024-01-15T09:23:27;61.70;;;42.58;;
68765;SDS011;55756;45.582;11.484;2024-01-15T09:25:53;64.77;;;42.43;;
68765;SDS011;55756;45.582;11.484;2024-01-15T09:28:19;63.55;;;42.03;;
68765;SDS011;55756;45.582;11.484;2024-01-15T09:30:45;63.15;;;42.40;;
68765;SDS011;55756;45.582;11.484;2024-01-15T09:33:10;66.18;;;42.92;;
68765;SDS011;55756;45.582;11.484;2024-01-15T09:35:36;65.32;;;44.50;;
68765;SDS011;55756;45.582;11.484;2024-01-15T09:38:02;66.18;;;44.33;;
68765;SDS011;55756;45.582;11.484;2024-01-15T09:40:31;64.13;;;45.30;;
68765;SDS011;55756;45.582;11.484;2024-01-15T09:42:58;69.43;;;47.10;;
68765;SDS011;55756;45.582;11.484;2024-01-15T09:45:25;68.75;;;47.80;;
68765;SDS011;55756;45.582;11.484;2024-01-15T09:47:51;68.60;;;46.50;;
68765;SDS011;55756;45.582;11.484;2024-01-15T09:50:17;67.75;;;47.58;;
68765;SDS011;55756;45.582;11.484;2024-01-15T09:52:43;68.85;;;47.42;;
68765;SDS011;55756;45.582;11.484;2024-01-15T09:55:10;73.93;;;48.20;;
68765;SDS011;55756;45.582;11.484;2024-01-15T09:57:37;72.00;;;48.08;;
68765;SDS011;55756;45.582;11.484;2024-01-15T10:00:04;72.40;;;49.45;;
68765;SDS011;55756;45.582;11.484;2024-01-15T10:02:32;75.93;;;48.47;;
68765;SDS011;55756;45.582;11.484;2024-01-15T10:04:58;68.32;;;46.70;;
68765;SDS011;55756;45.582;11.484;2024-01-15T10:07:24;68.68;;;46.90;;
68765;SDS011;55756;45.582;11.484;2024-01-15T10:09:51;64.60;;;46.25;;
68765;SDS011;55756;45.582;11.484;2024-01-15T10:12:16;72.80;;;49.03;;
68765;SDS011;55756;45.582;11.484;2024-01-15T10:14:42;68.13;;;46.40;;
68765;SDS011;55756;45.582;11.484;2024-01-15T10:17:11;68.07;;;47.38;;
68765;SDS011;55756;45.582;11.484;2024-01-15T10:19:39;73.43;;;47.80;;
68765;SDS011;55756;45.582;11.484;2024-01-15T10:22:07;69.90;;;47.30;;
68765;SDS011;55756;45.582;11.484;2024-01-15T10:24:35;78.35;;;47.40;;
68765;SDS011;55756;45.582;11.484;2024-01-15T10:27:05;65.93;;;45.85;;
68765;SDS011;55756;45.582;11.484;2024-01-15T10:29:32;68.07;;;46.95;;
68765;SDS011;55756;45.582;11.484;2024-01-15T10:31:57;68.63;;;47.25;;
68765;SDS011;55756;45.582;11.484;2024-01-15T10:34:24;66.82;;;48.15;;
68765;SDS011;55756;45.582;11.484;2024-01-15T10:36:50;64.50;;;45.65;;
68765;SDS011;55756;45.582;11.484;2024-01-15T10:39:24;68.15;;;47.25;;
68765;SDS011;55756;45.582;11.484;2024-01-15T10:41:50;68.25;;;46.33;;
68765;SDS011;55756;45.582;11.484;2024-01-15T10:44:16;62.50;;;45.42;;
68765;SDS011;55756;45.582;11.484;2024-01-15T10:46:43;62.85;;;45.20;;
68765;SDS011;55756;45.582;11.484;2024-01-15T10:49:19;61.10;;;44.75;;
68765;SDS011;55756;45.582;11.484;2024-01-15T10:51:45;62.63;;;45.40;;
68765;SDS011;55756;45.582;11.484;2024-01-15T10:54:13;64.90;;;45.75;;
68765;SDS011;55756;45.582;11.484;2024-01-15T10:56:39;62.30;;;44.92;;
68765;SDS011;55756;45.582;11.484;2024-01-15T10:59:06;66.13;;;46.05;;
68765;SDS011;55756;45.582;11.484;2024-01-15T11:01:35;60.83;;;44.58;;
68765;SDS011;55756;45.582;11.484;2024-01-15T11:04:02;61.88;;;44.60;;
68765;SDS011;55756;45.582;11.484;2024-01-15T11:06:28;67.47;;;46.10;;
68765;SDS011;55756;45.582;11.484;2024-01-15T11:09:11;62.22;;;44.53;;
68765;SDS011;55756;45.582;11.484;2024-01-15T11:11:41;63.63;;;45.33;;
68765;SDS011;55756;45.582;11.484;2024-01-15T11:14:09;63.25;;;44.13;;
68765;SDS011;55756;45.582;11.484;2024-01-15T11:16:54;65.47;;;44.00;;
68765;SDS011;55756;45.582;11.484;2024-01-15T11:19:35;68.97;;;46.25;;
68765;SDS011;55756;45.582;11.484;2024-01-15T11:22:02;62.83;;;43.65;;
68765;SDS011;55756;45.582;11.484;2024-01-15T11:24:33;60.20;;;43.75;;
68765;SDS011;55756;45.582;11.484;2024-01-15T11:27:03;61.75;;;44.03;;
68765;SDS011;55756;45.582;11.484;2024-01-15T11:29:34;64.20;;;45.78;;
68765;SDS011;55756;45.582;11.484;2024-01-15T11:37:23;69.65;;;48.97;;
68765;SDS011;55756;45.582;11.484;2024-01-15T11:39:51;67.93;;;48.47;;
68765;SDS011;55756;45.582;11.484;2024-01-15T11:42:17;76.15;;;49.88;;
68765;SDS011;55756;45.582;11.484;2024-01-15T11:44:45;70.43;;;50.80;;
68765;SDS011;55756;45.582;11.484;2024-01-15T11:47:12;80.15;;;51.97;;
68765;SDS011;55756;45.582;11.484;2024-01-15T11:52:22;75.80;;;51.75;;
68765;SDS011;55756;45.582;11.484;2024-01-15T12:00:12;69.20;;;49.50;;
68765;SDS011;55756;45.582;11.484;2024-01-15T12:02:39;74.18;;;51.05;;
68765;SDS011;55756;45.582;11.484;2024-01-15T12:05:06;71.18;;;50.00;;
68765;SDS011;55756;45.582;11.484;2024-01-15T12:07:38;73.80;;;50.30;;
68765;SDS011;55756;45.582;11.484;2024-01-15T12:10:08;75.90;;;50.88;;
68765;SDS011;55756;45.582;11.484;2024-01-15T12:12:37;73.28;;;51.28;;
68765;SDS011;55756;45.582;11.484;2024-01-15T12:15:10;74.90;;;50.28;;
68765;SDS011;55756;45.582;11.484;2024-01-15T12:17:36;71.68;;;50.42;;
68765;SDS011;55756;45.582;11.484;2024-01-15T12:20:03;72.25;;;51.67;;
68765;SDS011;55756;45.582;11.484;2024-01-15T12:22:30;76.97;;;53.13;;
68765;SDS011;55756;45.582;11.484;2024-01-15T12:24:56;79.15;;;51.55;;
68765;SDS011;55756;45.582;11.484;2024-01-15T12:27:22;70.80;;;50.42;;
68765;SDS011;55756;45.582;11.484;2024-01-15T12:29:49;68.90;;;48.13;;
68765;SDS011;55756;45.582;11.484;2024-01-15T12:32:15;73.32;;;50.65;;
68765;SDS011;55756;45.582;11.484;2024-01-15T12:34:40;76.55;;;49.03;;
68765;SDS011;55756;45.582;11.484;2024-01-15T12:37:07;76.95;;;50.28;;
68765;SDS011;55756;45.582;11.484;2024-01-15T12:39:36;78.40;;;51.38;;
68765;SDS011;55756;45.582;11.484;2024-01-15T12:44:28;74.30;;;48.15;;
68765;SDS011;55756;45.582;11.484;2024-01-15T12:46:54;70.15;;;46.88;;
68765;SDS011;55756;45.582;11.484;2024-01-15T12:49:20;67.63;;;47.60;;
68765;SDS011;55756;45.582;11.484;2024-01-15T12:51:52;62.88;;;45.65;;
68765;SDS011;55756;45.582;11.484;2024-01-15T12:54:26;65.88;;;47.88;;
68765;SDS011;55756;45.582;11.484;2024-01-15T12:56:53;69.20;;;46.95;;
68765;SDS011;55756;45.582;11.484;2024-01-15T12:59:19;70.20;;;46.63;;
68765;SDS011;55756;45.582;11.484;2024-01-15T13:01:47;63.90;;;44.60;;
68765;SDS011;55756;45.582;11.484;2024-01-15T13:04:23;66.60;;;45.28;;
68765;SDS011;55756;45.582;11.484;2024-01-15T13:06:49;62.50;;;44.35;;
68765;SDS011;55756;45.582;11.484;2024-01-15T13:09:16;66.32;;;44.15;;
68765;SDS011;55756;45.582;11.484;2024-01-15T13:11:42;63.55;;;43.50;;
68765;SDS011;55756;45.582;11.484;2024-01-15T13:14:09;60.67;;;42.13;;
68765;SDS011;55756;45.582;11.484;2024-01-15T13:16:35;56.28;;;41.53;;
68765;SDS011;55756;45.582;11.484;2024-01-15T13:19:01;57.38;;;42.05;;
68765;SDS011;55756;45.582;11.484;2024-01-15T13:21:29;58.38;;;41.65;;
68765;SDS011;55756;45.582;11.484;2024-01-15T13:23:55;57.10;;;42.72;;
68765;SDS011;55756;45.582;11.484;2024-01-15T13:26:21;59.10;;;41.47;;
68765;SDS011;55756;45.582;11.484;2024-01-15T13:28:47;54.58;;;39.58;;
68765;SDS011;55756;45.582;11.484;2024-01-15T13:31:13;54.33;;;39.70;;
68765;SDS011;55756;45.582;11.484;2024-01-15T13:33:39;54.30;;;40.42;;
68765;SDS011;55756;45.582;11.484;2024-01-15T13:36:05;55.53;;;40.15;;
68765;SDS011;55756;45.582;11.484;2024-01-15T13:38:37;51.75;;;38.58;;
68765;SDS011;55756;45.582;11.484;2024-01-15T13:41:06;53.15;;;37.30;;
68765;SDS011;55756;45.582;11.484;2024-01-15T13:43:32;52.47;;;37.28;;
68765;SDS011;55756;45.582;11.484;2024-01-15T13:45:58;50.92;;;37.65;;
68765;SDS011;55756;45.582;11.484;2024-01-15T13:48:25;50.13;;;36.97;;
68765;SDS011;55756;45.582;11.484;2024-01-15T13:50:51;50.88;;;36.28;;
68765;SDS011;55756;45.582;11.484;2024-01-15T13:53:18;53.22;;;37.88;;
68765;SDS011;55756;45.582;11.484;2024-01-15T13:55:44;51.78;;;37.67;;
68765;SDS011;55756;45.582;11.484;2024-01-15T13:58:10;52.78;;;38.15;;
68765;SDS011;55756;45.582;11.484;2024-01-15T14:00:37;50.38;;;37.65;;
68765;SDS011;55756;45.582;11.484;2024-01-15T14:03:04;51.45;;;38.42;;
68765;SDS011;55756;45.582;11.484;2024-01-15T14:05:32;57.13;;;40.20;;
68765;SDS011;55756;45.582;11.484;2024-01-15T14:07:58;55.50;;;40.38;;
68765;SDS011;55756;45.582;11.484;2024-01-15T14:10:24;59.28;;;39.30;;
68765;SDS011;55756;45.582;11.484;2024-01-15T14:12:49;55.35;;;39.10;;
68765;SDS011;55756;45.582;11.484;2024-01-15T14:15:15;56.78;;;40.30;;
68765;SDS011;55756;45.582;11.484;2024-01-15T14:17:41;55.13;;;38.55;;
68765;SDS011;55756;45.582;11.484;2024-01-15T14:20:07;54.50;;;39.65;;